sensor_id;sensor_type;location;lat;lon;timestamp;P1;durP1;ratioP1;P2;durP2;ratioP2
27265;SDS011;14766;51.380;13.762;2023-05-29T00:00:23;3.75;;;3.05;;
27265;SDS011;14766;51.380;13.762;2023-05-29T00:02:50;3.63;;;2.95;;
27265;SDS011;14766;51.380;13.762;2023-05-29T00:05:18;5.78;;;3.40;;
27265;SDS011;14766;51.380;13.762;2023-05-29T00:07:45;5.28;;;3.30;;
27265;SDS011;14766;51.380;13.762;2023-05-29T00:10:13;4.57;;;3.10;;
27265;SDS011;14766;51.380;13.762;2023-05-29T00:12:41;3.85;;;3.38;;
27265;SDS011;14766;51.380;13.762;2023-05-29T00:15:09;3.65;;;2.72;;
27265;SDS011;14766;51.380;13.762;2023-05-29T00:17:39;4.78;;;3.10;;
27265;SDS011;14766;51.380;13.762;2023-05-29T00:20:06;4.10;;;3.08;;
27265;SDS011;14766;51.380;13.762;2023-05-29T00:22:38;4.50;;;3.20;;
27265;SDS011;14766;51.380;13.762;2023-05-29T00:25:06;3.65;;;3.13;;
27265;SDS011;14766;51.380;13.762;2023-05-29T00:27:34;3.97;;;2.83;;
27265;SDS011;14766;51.380;13.762;2023-05-29T00:30:03;5.85;;;3.40;;
27265;SDS011;14766;51.380;13.762;2023-05-29T00:32:32;4.95;;;3.20;;
27265;SDS011;14766;51.380;13.762;2023-05-29T00:34:59;3.72;;;2.90;;
27265;SDS011;14766;51.380;13.762;2023-05-29T00:37:26;4.40;;;3.13;;
27265;SDS011;14766;51.380;13.762;2023-05-29T00:39:53;5.93;;;3.22;;
27265;SDS011;14766;51.380;13.762;2023-05-29T00:42:20;4.32;;;3.10;;
27265;SDS011;14766;51.380;13.762;2023-05-29T00:44:48;3.97;;;2.83;;
27265;SDS011;14766;51.380;13.762;2023-05-29T00:47:16;6.05;;;3.28;;
27265;SDS011;14766;51.380;13.762;2023-05-29T00:49:43;3.97;;;3.33;;
27265;SDS011;14766;51.380;13.762;2023-05-29T00:52:11;3.70;;;3.13;;
27265;SDS011;14766;51.380;13.762;2023-05-29T00:54:39;5.15;;;3.20;;
27265;SDS011;14766;51.380;13.762;2023-05-29T00:57:10;4.63;;;2.83;;
27265;SDS011;14766;51.380;13.762;2023-05-29T00:59:39;3.90;;;2.80;;
27265;SDS011;14766;51.380;13.762;2023-05-29T01:02:08;3.63;;;2.85;;
27265;SDS011;14766;51.380;13.762;2023-05-29T01:04:36;4.15;;;3.15;;
27265;SDS011;14766;51.380;13.762;2023-05-29T01:07:04;5.25;;;2.83;;
27265;SDS011;14766;51.380;13.762;2023-05-29T01:09:31;4.68;;;3.08;;
27265;SDS011;14766;51.380;13.762;2023-05-29T01:12:19;3.67;;;3.28;;
27265;SDS011;14766;51.380;13.762;2023-05-29T01:18:26;4.78;;;3.58;;
27265;SDS011;14766;51.380;13.762;2023-05-29T01:24:48;3.90;;;3.15;;
27265;SDS011;14766;51.380;13.762;2023-05-29T01:27:18;4.18;;;3.33;;
27265;SDS011;14766;51.380;13.762;2023-05-29T01:29:48;4.68;;;3.20;;
27265;SDS011;14766;51.380;13.762;2023-05-29T01:32:18;3.17;;;2.85;;
27265;SDS011;14766;51.380;13.762;2023-05-29T01:34:46;4.15;;;3.35;;
27265;SDS011;14766;51.380;13.762;2023-05-29T01:37:13;4.90;;;3.13;;
27265;SDS011;14766;51.380;13.762;2023-05-29T01:39:40;5.63;;;3.50;;
27265;SDS011;14766;51.380;13.762;2023-05-29T01:42:08;5.65;;;3.33;;
27265;SDS011;14766;51.380;13.762;2023-05-29T01:44:37;4.32;;;3.20;;
27265;SDS011;14766;51.380;13.762;2023-05-29T01:47:05;5.45;;;3.33;;
27265;SDS011;14766;51.380;13.762;2023-05-29T01:49:33;5.00;;;3.20;;
27265;SDS011;14766;51.380;13.762;2023-05-29T01:52:02;5.40;;;3.60;;
27265;SDS011;14766;51.380;13.762;2023-05-29T01:54:30;5.72;;;3.47;;
27265;SDS011;14766;51.380;13.762;2023-05-29T01:56:58;5.30;;;3.60;;
27265;SDS011;14766;51.380;13.762;2023-05-29T01:59:26;5.75;;;3.72;;
27265;SDS011;14766;51.380;13.762;2023-05-29T02:01:55;4.85;;;3.00;;
27265;SDS011;14766;51.380;13.762;2023-05-29T02:04:21;5.82;;;3.97;;
27265;SDS011;14766;51.380;13.762;2023-05-29T02:06:49;4.90;;;3.70;;
27265;SDS011;14766;51.380;13.762;2023-05-29T02:09:23;5.80;;;3.60;;
27265;SDS011;14766;51.380;13.762;2023-05-29T02:11:51;4.65;;;3.38;;
27265;SDS011;14766;51.380;13.762;2023-05-29T02:14:19;5.18;;;3.50;;
27265;SDS011;14766;51.380;13.762;2023-05-29T02:16:46;6.40;;;3.60;;
27265;SDS011;14766;51.380;13.762;2023-05-29T02:19:15;4.80;;;3.88;;
27265;SDS011;14766;51.380;13.762;2023-05-29T02:21:43;4.85;;;3.50;;
27265;SDS011;14766;51.380;13.762;2023-05-29T02:24:11;4.55;;;3.75;;
27265;SDS011;14766;51.380;13.762;2023-05-29T02:26:39;5.13;;;3.75;;
27265;SDS011;14766;51.380;13.762;2023-05-29T02:29:07;4.45;;;3.85;;
27265;SDS011;14766;51.380;13.762;2023-05-29T02:31:34;6.00;;;3.88;;
27265;SDS011;14766;51.380;13.762;2023-05-29T02:34:03;5.25;;;3.63;;
27265;SDS011;14766;51.380;13.762;2023-05-29T02:36:30;5.35;;;3.70;;
27265;SDS011;14766;51.380;13.762;2023-05-29T02:38:57;4.90;;;3.83;;
27265;SDS011;14766;51.380;13.762;2023-05-29T02:41:25;5.85;;;4.05;;
27265;SDS011;14766;51.380;13.762;2023-05-29T02:43:52;4.55;;;3.65;;
27265;SDS011;14766;51.380;13.762;2023-05-29T02:46:20;4.63;;;3.55;;
27265;SDS011;14766;51.380;13.762;2023-05-29T02:48:48;4.82;;;3.58;;
27265;SDS011;14766;51.380;13.762;2023-05-29T02:51:15;4.30;;;3.60;;
27265;SDS011;14766;51.380;13.762;2023-05-29T02:53:42;6.85;;;3.67;;
27265;SDS011;14766;51.380;13.762;2023-05-29T02:56:09;4.50;;;3.10;;
27265;SDS011;14766;51.380;13.762;2023-05-29T02:58:36;4.57;;;3.25;;
27265;SDS011;14766;51.380;13.762;2023-05-29T03:01:03;4.45;;;3.65;;
27265;SDS011;14766;51.380;13.762;2023-05-29T03:03:31;5.60;;;3.63;;
27265;SDS011;14766;51.380;13.762;2023-05-29T03:05:58;5.45;;;3.78;;
27265;SDS011;14766;51.380;13.762;2023-05-29T03:08:27;6.60;;;3.50;;
27265;SDS011;14766;51.380;13.762;2023-05-29T03:10:54;4.43;;;3.53;;
27265;SDS011;14766;51.380;13.762;2023-05-29T03:13:23;4.75;;;3.50;;
27265;SDS011;14766;51.380;13.762;2023-05-29T03:16:02;4.28;;;3.50;;
27265;SDS011;14766;51.380;13.762;2023-05-29T03:18:29;5.82;;;3.95;;
27265;SDS011;14766;51.380;13.762;2023-05-29T03:20:56;4.03;;;3.17;;
27265;SDS011;14766;51.380;13.762;2023-05-29T03:23:24;5.15;;;3.42;;
27265;SDS011;14766;51.380;13.762;2023-05-29T03:25:53;4.93;;;3.50;;
27265;SDS011;14766;51.380;13.762;2023-05-29T03:28:21;6.78;;;4.07;;
27265;SDS011;14766;51.380;13.762;2023-05-29T03:30:49;6.40;;;3.67;;
27265;SDS011;14766;51.380;13.762;2023-05-29T03:33:20;5.25;;;3.47;;
27265;SDS011;14766;51.380;13.762;2023-05-29T03:36:07;5.00;;;3.40;;
27265;SDS011;14766;51.380;13.762;2023-05-29T03:38:35;4.50;;;3.15;;
27265;SDS011;14766;51.380;13.762;2023-05-29T03:41:02;5.82;;;3.67;;
27265;SDS011;14766;51.380;13.762;2023-05-29T03:43:32;4.40;;;3.83;;
27265;SDS011;14766;51.380;13.762;2023-05-29T03:45:59;4.43;;;3.50;;
27265;SDS011;14766;51.380;13.762;2023-05-29T03:48:29;4.95;;;3.90;;
27265;SDS011;14766;51.380;13.762;2023-05-29T03:50:58;4.00;;;3.47;;
27265;SDS011;14766;51.380;13.762;2023-05-29T03:53:31;4.15;;;3.47;;
27265;SDS011;14766;51.380;13.762;2023-05-29T03:55:58;5.15;;;3.33;;
27265;SDS011;14766;51.380;13.762;2023-05-29T03:58:25;4.53;;;3.30;;
27265;SDS011;14766;51.380;13.762;2023-05-29T04:00:53;6.80;;;3.80;;
27265;SDS011;14766;51.380;13.762;2023-05-29T04:03:20;5.25;;;3.67;;
27265;SDS011;14766;51.380;13.762;2023-05-29T04:05:49;5.57;;;3.70;;
27265;SDS011;14766;51.380;13.762;2023-05-29T04:08:16;4.88;;;3.42;;
27265;SDS011;14766;51.380;13.762;2023-05-29T04:10:43;4.13;;;3.55;;
27265;SDS011;14766;51.380;13.762;2023-05-29T04:13:11;4.88;;;3.38;;
27265;SDS011;14766;51.380;13.762;2023-05-29T04:15:38;3.95;;;3.03;;
27265;SDS011;14766;51.380;13.762;2023-05-29T04:18:06;5.20;;;3.33;;
27265;SDS011;14766;51.380;13.762;2023-05-29T04:20:33;5.70;;;3.65;;
27265;SDS011;14766;51.380;13.762;2023-05-29T04:23:02;5.13;;;3.70;;
27265;SDS011;14766;51.380;13.762;2023-05-29T04:25:31;4.75;;;3.47;;
27265;SDS011;14766;51.380;13.762;2023-05-29T04:27:59;4.85;;;3.30;;
27265;SDS011;14766;51.380;13.762;2023-05-29T04:30:28;4.80;;;3.70;;
27265;SDS011;14766;51.380;13.762;2023-05-29T04:32:56;4.13;;;3.38;;
27265;SDS011;14766;51.380;13.762;2023-05-29T04:35:24;3.97;;;3.25;;
27265;SDS011;14766;51.380;13.762;2023-05-29T04:37:56;4.43;;;3.60;;
27265;SDS011;14766;51.380;13.762;2023-05-29T04:40:28;4.47;;;3.33;;
27265;SDS011;14766;51.380;13.762;2023-05-29T04:42:56;4.40;;;3.45;;
27265;SDS011;14766;51.380;13.762;2023-05-29T04:45:31;5.05;;;3.60;;
27265;SDS011;14766;51.380;13.762;2023-05-29T04:47:58;5.88;;;3.70;;
27265;SDS011;14766;51.380;13.762;2023-05-29T04:50:25;3.60;;;3.03;;
27265;SDS011;14766;51.380;13.762;2023-05-29T04:52:58;4.40;;;3.50;;
27265;SDS011;14766;51.380;13.762;2023-05-29T04:55:27;4.97;;;3.65;;
27265;SDS011;14766;51.380;13.762;2023-05-29T04:57:54;4.65;;;3.70;;
27265;SDS011;14766;51.380;13.762;2023-05-29T05:00:23;5.50;;;3.33;;
27265;SDS011;14766;51.380;13.762;2023-05-29T05:02:51;4.75;;;4.07;;
27265;SDS011;14766;51.380;13.762;2023-05-29T05:05:20;5.68;;;3.85;;
27265;SDS011;14766;51.380;13.762;2023-05-29T05:07:52;5.07;;;3.75;;
27265;SDS011;14766;51.380;13.762;2023-05-29T05:10:19;5.38;;;3.90;;
27265;SDS011;14766;51.380;13.762;2023-05-29T05:12:47;4.68;;;3.58;;
27265;SDS011;14766;51.380;13.762;2023-05-29T05:15:16;6.18;;;3.78;;
27265;SDS011;14766;51.380;13.762;2023-05-29T05:17:43;4.97;;;3.30;;
27265;SDS011;14766;51.380;13.762;2023-05-29T05:20:11;4.13;;;3.63;;
27265;SDS011;14766;51.380;13.762;2023-05-29T05:22:39;5.63;;;3.60;;
27265;SDS011;14766;51.380;13.762;2023-05-29T05:25:07;5.45;;;4.00;;
27265;SDS011;14766;51.380;13.762;2023-05-29T05:27:34;5.95;;;4.00;;
27265;SDS011;14766;51.380;13.762;2023-05-29T05:30:05;4.68;;;3.33;;
27265;SDS011;14766;51.380;13.762;2023-05-29T05:32:34;4.85;;;3.85;;
27265;SDS011;14766;51.380;13.762;2023-05-29T05:35:05;5.53;;;3.80;;
27265;SDS011;14766;51.380;13.762;2023-05-29T05:37:34;5.32;;;3.75;;
27265;SDS011;14766;51.380;13.762;2023-05-29T05:40:02;4.70;;;3.75;;
27265;SDS011;14766;51.380;13.762;2023-05-29T05:42:31;5.97;;;3.70;;
27265;SDS011;14766;51.380;13.762;2023-05-29T05:45:03;4.32;;;3.38;;
27265;SDS011;14766;51.380;13.762;2023-05-29T05:47:32;3.72;;;3.28;;
27265;SDS011;14766;51.380;13.762;2023-05-29T05:49:59;4.20;;;3.45;;
27265;SDS011;14766;51.380;13.762;2023-05-29T05:52:27;5.05;;;3.60;;
27265;SDS011;14766;51.380;13.762;2023-05-29T05:54:58;3.50;;;2.70;;
27265;SDS011;14766;51.380;13.762;2023-05-29T05:57:25;5.00;;;3.53;;
27265;SDS011;14766;51.380;13.762;2023-05-29T05:59:53;4.85;;;3.65;;
27265;SDS011;14766;51.380;13.762;2023-05-29T06:02:22;4.85;;;3.22;;
27265;SDS011;14766;51.380;13.762;2023-05-29T06:04:51;5.47;;;4.30;;
27265;SDS011;14766;51.380;13.762;2023-05-29T06:07:18;4.43;;;3.38;;
27265;SDS011;14766;51.380;13.762;2023-05-29T06:09:46;4.65;;;3.85;;
27265;SDS011;14766;51.380;13.762;2023-05-29T06:12:14;4.75;;;3.40;;
27265;SDS011;14766;51.380;13.762;2023-05-29T06:14:52;4.22;;;3.38;;
27265;SDS011;14766;51.380;13.762;2023-05-29T06:17:20;6.75;;;3.67;;
27265;SDS011;14766;51.380;13.762;2023-05-29T06:19:49;4.07;;;3.42;;
27265;SDS011;14766;51.380;13.762;2023-05-29T06:22:16;4.30;;;3.42;;
27265;SDS011;14766;51.380;13.762;2023-05-29T06:24:44;4.75;;;3.63;;
27265;SDS011;14766;51.380;13.762;2023-05-29T06:27:12;4.47;;;3.25;;
27265;SDS011;14766;51.380;13.762;2023-05-29T06:29:39;4.60;;;3.67;;
27265;SDS011;14766;51.380;13.762;2023-05-29T06:32:07;4.95;;;3.60;;
27265;SDS011;14766;51.380;13.762;2023-05-29T06:34:34;4.78;;;3.20;;
27265;SDS011;14766;51.380;13.762;2023-05-29T06:37:02;5.43;;;3.40;;
27265;SDS011;14766;51.380;13.762;2023-05-29T06:39:29;4.35;;;3.35;;
27265;SDS011;14766;51.380;13.762;2023-05-29T06:41:57;6.35;;;3.38;;
27265;SDS011;14766;51.380;13.762;2023-05-29T06:44:24;5.25;;;3.33;;
27265;SDS011;14766;51.380;13.762;2023-05-29T06:46:53;5.25;;;3.30;;
27265;SDS011;14766;51.380;13.762;2023-05-29T06:49:20;3.97;;;3.25;;
27265;SDS011;14766;51.380;13.762;2023-05-29T06:51:47;3.47;;;3.00;;
27265;SDS011;14766;51.380;13.762;2023-05-29T06:54:22;6.40;;;3.50;;
27265;SDS011;14766;51.380;13.762;2023-05-29T06:56:49;4.65;;;3.25;;
27265;SDS011;14766;51.380;13.762;2023-05-29T06:59:35;4.97;;;3.40;;
27265;SDS011;14766;51.380;13.762;2023-05-29T07:02:02;3.85;;;2.85;;
27265;SDS011;14766;51.380;13.762;2023-05-29T07:04:29;4.60;;;3.00;;
27265;SDS011;14766;51.380;13.762;2023-05-29T07:06:57;4.00;;;3.28;;
27265;SDS011;14766;51.380;13.762;2023-05-29T07:09:24;5.20;;;3.33;;
27265;SDS011;14766;51.380;13.762;2023-05-29T07:11:52;5.10;;;3.08;;
27265;SDS011;14766;51.380;13.762;2023-05-29T07:14:19;4.15;;;3.10;;
27265;SDS011;14766;51.380;13.762;2023-05-29T07:16:47;4.35;;;3.30;;
27265;SDS011;14766;51.380;13.762;2023-05-29T07:19:14;6.70;;;3.30;;
27265;SDS011;14766;51.380;13.762;2023-05-29T07:21:47;5.47;;;3.25;;
27265;SDS011;14766;51.380;13.762;2023-05-29T07:24:17;5.88;;;2.97;;
27265;SDS011;14766;51.380;13.762;2023-05-29T07:26:46;4.03;;;3.00;;
27265;SDS011;14766;51.380;13.762;2023-05-29T07:29:15;4.63;;;3.03;;
27265;SDS011;14766;51.380;13.762;2023-05-29T07:31:44;6.38;;;3.60;;
27265;SDS011;14766;51.380;13.762;2023-05-29T07:34:12;5.65;;;3.25;;
27265;SDS011;14766;51.380;13.762;2023-05-29T07:36:55;4.95;;;3.30;;
27265;SDS011;14766;51.380;13.762;2023-05-29T07:39:32;4.60;;;2.95;;
27265;SDS011;14766;51.380;13.762;2023-05-29T07:42:11;4.63;;;3.00;;
27265;SDS011;14766;51.380;13.762;2023-05-29T07:44:41;4.05;;;2.97;;
27265;SDS011;14766;51.380;13.762;2023-05-29T07:47:09;4.88;;;3.08;;
27265;SDS011;14766;51.380;13.762;2023-05-29T07:49:44;5.87;;;2.87;;
27265;SDS011;14766;51.380;13.762;2023-05-29T07:52:11;3.25;;;2.85;;
27265;SDS011;14766;51.380;13.762;2023-05-29T07:54:38;7.45;;;3.38;;
27265;SDS011;14766;51.380;13.762;2023-05-29T07:57:07;5.38;;;3.17;;
27265;SDS011;14766;51.380;13.762;2023-05-29T07:59:40;4.68;;;3.33;;
27265;SDS011;14766;51.380;13.762;2023-05-29T08:02:08;4.47;;;2.92;;
27265;SDS011;14766;51.380;13.762;2023-05-29T08:04:47;5.05;;;3.03;;
27265;SDS011;14766;51.380;13.762;2023-05-29T08:07:15;3.38;;;2.85;;
27265;SDS011;14766;51.380;13.762;2023-05-29T08:09:43;3.55;;;2.55;;
27265;SDS011;14766;51.380;13.762;2023-05-29T08:12:10;4.07;;;2.55;;
27265;SDS011;14766;51.380;13.762;2023-05-29T08:14:38;4.03;;;2.85;;
27265;SDS011;14766;51.380;13.762;2023-05-29T08:17:06;4.75;;;2.38;;
27265;SDS011;14766;51.380;13.762;2023-05-29T08:19:34;5.88;;;2.88;;
27265;SDS011;14766;51.380;13.762;2023-05-29T08:22:01;5.40;;;2.85;;
27265;SDS011;14766;51.380;13.762;2023-05-29T08:24:28;3.63;;;2.65;;
27265;SDS011;14766;51.380;13.762;2023-05-29T08:26:57;5.20;;;2.75;;
27265;SDS011;14766;51.380;13.762;2023-05-29T08:29:24;3.05;;;2.50;;
27265;SDS011;14766;51.380;13.762;2023-05-29T08:31:51;4.55;;;2.92;;
27265;SDS011;14766;51.380;13.762;2023-05-29T08:34:19;5.05;;;2.55;;
27265;SDS011;14766;51.380;13.762;2023-05-29T08:36:49;3.22;;;2.63;;
27265;SDS011;14766;51.380;13.762;2023-05-29T08:39:18;5.43;;;2.90;;
27265;SDS011;14766;51.380;13.762;2023-05-29T08:41:49;4.10;;;2.33;;
27265;SDS011;14766;51.380;13.762;2023-05-29T08:44:26;3.72;;;2.50;;
27265;SDS011;14766;51.380;13.762;2023-05-29T08:47:00;4.65;;;2.53;;
27265;SDS011;14766;51.380;13.762;2023-05-29T08:49:40;4.10;;;2.75;;
27265;SDS011;14766;51.380;13.762;2023-05-29T08:52:14;4.57;;;2.60;;
27265;SDS011;14766;51.380;13.762;2023-05-29T08:54:43;3.63;;;2.83;;
27265;SDS011;14766;51.380;13.762;2023-05-29T08:57:12;4.43;;;2.58;;
27265;SDS011;14766;51.380;13.762;2023-05-29T08:59:44;2.10;;;1.90;;
27265;SDS011;14766;51.380;13.762;2023-05-29T09:02:12;5.00;;;2.78;;
27265;SDS011;14766;51.380;13.762;2023-05-29T09:04:43;4.53;;;2.63;;
27265;SDS011;14766;51.380;13.762;2023-05-29T09:07:19;3.22;;;2.60;;
27265;SDS011;14766;51.380;13.762;2023-05-29T09:09:46;3.55;;;2.38;;
27265;SDS011;14766;51.380;13.762;2023-05-29T09:12:14;3.20;;;2.50;;
27265;SDS011;14766;51.380;13.762;2023-05-29T09:14:44;3.05;;;2.20;;
27265;SDS011;14766;51.380;13.762;2023-05-29T09:17:13;4.03;;;2.40;;
27265;SDS011;14766;51.380;13.762;2023-05-29T09:19:41;3.20;;;2.22;;
27265;SDS011;14766;51.380;13.762;2023-05-29T09:22:12;5.47;;;2.72;;
27265;SDS011;14766;51.380;13.762;2023-05-29T09:24:43;3.35;;;2.28;;
27265;SDS011;14766;51.380;13.762;2023-05-29T09:27:14;2.97;;;2.20;;
27265;SDS011;14766;51.380;13.762;2023-05-29T09:29:42;3.50;;;2.55;;
27265;SDS011;14766;51.380;13.762;2023-05-29T09:32:11;4.18;;;2.35;;
27265;SDS011;14766;51.380;13.762;2023-05-29T09:34:41;2.75;;;2.20;;
27265;SDS011;14766;51.380;13.762;2023-05-29T09:37:09;3.42;;;2.42;;
27265;SDS011;14766;51.380;13.762;2023-05-29T09:42:11;2.60;;;2.03;;
27265;SDS011;14766;51.380;13.762;2023-05-29T09:44:42;3.30;;;2.47;;
27265;SDS011;14766;51.380;13.762;2023-05-29T09:47:16;3.10;;;2.38;;
27265;SDS011;14766;51.380;13.762;2023-05-29T09:49:44;2.40;;;2.15;;
27265;SDS011;14766;51.380;13.762;2023-05-29T09:52:13;3.38;;;2.42;;
27265;SDS011;14766;51.380;13.762;2023-05-29T09:54:42;3.45;;;2.25;;
27265;SDS011;14766;51.380;13.762;2023-05-29T09:57:13;3.10;;;2.30;;
27265;SDS011;14766;51.380;13.762;2023-05-29T09:59:44;3.95;;;2.42;;
27265;SDS011;14766;51.380;13.762;2023-05-29T10:02:14;3.50;;;2.40;;
27265;SDS011;14766;51.380;13.762;2023-05-29T10:04:42;4.50;;;2.40;;
27265;SDS011;14766;51.380;13.762;2023-05-29T10:07:22;3.63;;;2.08;;
27265;SDS011;14766;51.380;13.762;2023-05-29T10:09:58;3.45;;;2.17;;
27265;SDS011;14766;51.380;13.762;2023-05-29T10:12:29;3.95;;;2.40;;
27265;SDS011;14766;51.380;13.762;2023-05-29T10:15:03;4.10;;;2.43;;
27265;SDS011;14766;51.380;13.762;2023-05-29T10:17:38;2.75;;;2.15;;
27265;SDS011;14766;51.380;13.762;2023-05-29T10:20:19;3.55;;;2.28;;
27265;SDS011;14766;51.380;13.762;2023-05-29T10:22:50;3.28;;;2.25;;
27265;SDS011;14766;51.380;13.762;2023-05-29T10:25:19;2.55;;;2.15;;
27265;SDS011;14766;51.380;13.762;2023-05-29T10:27:50;2.80;;;1.88;;
27265;SDS011;14766;51.380;13.762;2023-05-29T10:33:01;3.17;;;2.38;;
27265;SDS011;14766;51.380;13.762;2023-05-29T10:35:36;3.28;;;2.10;;
27265;SDS011;14766;51.380;13.762;2023-05-29T10:38:34;5.05;;;2.40;;
27265;SDS011;14766;51.380;13.762;2023-05-29T10:41:45;4.68;;;2.10;;
27265;SDS011;14766;51.380;13.762;2023-05-29T10:44:01;2.63;;;2.13;;
27265;SDS011;14766;51.380;13.762;2023-05-29T10:49:15;3.78;;;2.28;;
27265;SDS011;14766;51.380;13.762;2023-05-29T10:51:43;5.80;;;2.67;;
27265;SDS011;14766;51.380;13.762;2023-05-29T10:54:12;3.42;;;2.05;;
27265;SDS011;14766;51.380;13.762;2023-05-29T10:56:44;3.10;;;2.50;;
27265;SDS011;14766;51.380;13.762;2023-05-29T10:59:25;3.72;;;2.50;;
27265;SDS011;14766;51.380;13.762;2023-05-29T11:01:54;4.03;;;2.40;;
27265;SDS011;14766;51.380;13.762;2023-05-29T11:04:25;4.05;;;2.47;;
27265;SDS011;14766;51.380;13.762;2023-05-29T11:06:53;3.35;;;2.13;;
27265;SDS011;14766;51.380;13.762;2023-05-29T11:12:25;4.88;;;2.67;;
27265;SDS011;14766;51.380;13.762;2023-05-29T11:15:04;2.45;;;2.05;;
27265;SDS011;14766;51.380;13.762;2023-05-29T11:17:54;4.45;;;2.30;;
27265;SDS011;14766;51.380;13.762;2023-05-29T11:23:24;4.30;;;2.30;;
27265;SDS011;14766;51.380;13.762;2023-05-29T11:25:57;4.05;;;2.20;;
27265;SDS011;14766;51.380;13.762;2023-05-29T11:28:26;3.03;;;2.50;;
27265;SDS011;14766;51.380;13.762;2023-05-29T11:30:54;3.92;;;2.30;;
27265;SDS011;14766;51.380;13.762;2023-05-29T11:33:26;3.08;;;2.20;;
27265;SDS011;14766;51.380;13.762;2023-05-29T11:36:02;3.50;;;2.20;;
27265;SDS011;14766;51.380;13.762;2023-05-29T11:38:30;3.78;;;2.35;;
27265;SDS011;14766;51.380;13.762;2023-05-29T11:40:57;2.80;;;2.20;;
27265;SDS011;14766;51.380;13.762;2023-05-29T11:43:27;3.88;;;2.50;;
27265;SDS011;14766;51.380;13.762;2023-05-29T11:45:54;3.60;;;2.50;;
27265;SDS011;14766;51.380;13.762;2023-05-29T11:48:22;3.40;;;2.10;;
27265;SDS011;14766;51.380;13.762;2023-05-29T11:50:50;2.72;;;2.50;;
27265;SDS011;14766;51.380;13.762;2023-05-29T11:53:17;3.88;;;2.53;;
27265;SDS011;14766;51.380;13.762;2023-05-29T11:55:46;3.33;;;2.50;;
27265;SDS011;14766;51.380;13.762;2023-05-29T11:58:13;3.25;;;2.08;;
27265;SDS011;14766;51.380;13.762;2023-05-29T12:00:43;4.57;;;2.45;;
27265;SDS011;14766;51.380;13.762;2023-05-29T12:03:13;3.65;;;2.22;;
27265;SDS011;14766;51.380;13.762;2023-05-29T12:05:48;4.32;;;2.28;;
27265;SDS011;14766;51.380;13.762;2023-05-29T12:08:24;3.47;;;2.33;;
27265;SDS011;14766;51.380;13.762;2023-05-29T12:10:52;2.58;;;2.25;;
27265;SDS011;14766;51.380;13.762;2023-05-29T12:13:20;4.80;;;2.70;;
27265;SDS011;14766;51.380;13.762;2023-05-29T12:15:51;2.47;;;1.98;;
27265;SDS011;14766;51.380;13.762;2023-05-29T12:18:20;4.85;;;2.10;;
27265;SDS011;14766;51.380;13.762;2023-05-29T12:20:48;3.45;;;2.45;;
27265;SDS011;14766;51.380;13.762;2023-05-29T12:23:16;3.72;;;2.10;;
27265;SDS011;14766;51.380;13.762;2023-05-29T12:25:47;3.92;;;2.65;;
27265;SDS011;14766;51.380;13.762;2023-05-29T12:28:17;3.90;;;2.38;;
27265;SDS011;14766;51.380;13.762;2023-05-29T12:30:46;3.72;;;2.45;;
27265;SDS011;14766;51.380;13.762;2023-05-29T12:33:31;3.40;;;2.80;;
27265;SDS011;14766;51.380;13.762;2023-05-29T12:38:31;3.30;;;2.45;;
27265;SDS011;14766;51.380;13.762;2023-05-29T12:40:58;4.07;;;2.70;;
27265;SDS011;14766;51.380;13.762;2023-05-29T12:43:26;3.47;;;2.25;;
27265;SDS011;14766;51.380;13.762;2023-05-29T12:45:54;3.42;;;2.20;;
27265;SDS011;14766;51.380;13.762;2023-05-29T12:48:26;3.05;;;2.20;;
27265;SDS011;14766;51.380;13.762;2023-05-29T12:50:54;2.90;;;2.35;;
27265;SDS011;14766;51.380;13.762;2023-05-29T12:53:23;3.83;;;2.22;;
27265;SDS011;14766;51.380;13.762;2023-05-29T12:55:55;3.95;;;2.38;;
27265;SDS011;14766;51.380;13.762;2023-05-29T12:58:23;2.97;;;2.20;;
27265;SDS011;14766;51.380;13.762;2023-05-29T13:00:52;4.00;;;2.30;;
27265;SDS011;14766;51.380;13.762;2023-05-29T13:03:22;2.33;;;2.00;;
27265;SDS011;14766;51.380;13.762;2023-05-29T13:05:50;3.55;;;2.33;;
27265;SDS011;14766;51.380;13.762;2023-05-29T13:08:18;3.47;;;2.10;;
27265;SDS011;14766;51.380;13.762;2023-05-29T13:10:46;4.55;;;2.22;;
27265;SDS011;14766;51.380;13.762;2023-05-29T13:13:13;4.13;;;2.20;;
27265;SDS011;14766;51.380;13.762;2023-05-29T13:15:40;3.63;;;2.92;;
27265;SDS011;14766;51.380;13.762;2023-05-29T13:18:08;3.22;;;2.42;;
27265;SDS011;14766;51.380;13.762;2023-05-29T13:20:35;4.32;;;2.35;;
27265;SDS011;14766;51.380;13.762;2023-05-29T13:23:02;5.68;;;2.60;;
27265;SDS011;14766;51.380;13.762;2023-05-29T13:25:29;4.25;;;2.65;;
27265;SDS011;14766;51.380;13.762;2023-05-29T13:27:56;3.53;;;2.10;;
27265;SDS011;14766;51.380;13.762;2023-05-29T13:30:26;3.17;;;2.50;;
27265;SDS011;14766;51.380;13.762;2023-05-29T13:32:53;3.28;;;2.30;;
27265;SDS011;14766;51.380;13.762;2023-05-29T13:35:20;4.03;;;2.67;;
27265;SDS011;14766;51.380;13.762;2023-05-29T13:37:47;4.80;;;2.45;;
27265;SDS011;14766;51.380;13.762;2023-05-29T13:40:15;4.25;;;2.50;;
27265;SDS011;14766;51.380;13.762;2023-05-29T13:42:42;3.75;;;2.42;;
27265;SDS011;14766;51.380;13.762;2023-05-29T13:45:12;3.83;;;2.45;;
27265;SDS011;14766;51.380;13.762;2023-05-29T13:47:41;3.90;;;2.28;;
27265;SDS011;14766;51.380;13.762;2023-05-29T13:50:08;4.75;;;2.65;;
27265;SDS011;14766;51.380;13.762;2023-05-29T13:52:35;6.03;;;2.35;;
27265;SDS011;14766;51.380;13.762;2023-05-29T13:55:02;4.00;;;2.30;;
27265;SDS011;14766;51.380;13.762;2023-05-29T13:57:36;4.72;;;2.80;;
27265;SDS011;14766;51.380;13.762;2023-05-29T14:00:04;3.08;;;2.30;;
27265;SDS011;14766;51.380;13.762;2023-05-29T14:02:32;3.95;;;2.60;;
27265;SDS011;14766;51.380;13.762;2023-05-29T14:04:59;3.80;;;2.20;;
27265;SDS011;14766;51.380;13.762;2023-05-29T14:07:26;3.20;;;2.40;;
27265;SDS011;14766;51.380;13.762;2023-05-29T14:09:54;3.90;;;2.20;;
27265;SDS011;14766;51.380;13.762;2023-05-29T14:12:21;4.72;;;2.72;;
27265;SDS011;14766;51.380;13.762;2023-05-29T14:14:48;3.78;;;2.58;;
27265;SDS011;14766;51.380;13.762;2023-05-29T14:17:15;3.45;;;2.35;;
27265;SDS011;14766;51.380;13.762;2023-05-29T14:19:43;4.03;;;2.47;;
27265;SDS011;14766;51.380;13.762;2023-05-29T14:22:15;3.33;;;2.55;;
27265;SDS011;14766;51.380;13.762;2023-05-29T14:24:43;3.35;;;2.58;;
27265;SDS011;14766;51.380;13.762;2023-05-29T14:27:12;4.20;;;2.63;;
27265;SDS011;14766;51.380;13.762;2023-05-29T14:29:41;3.95;;;2.72;;
27265;SDS011;14766;51.380;13.762;2023-05-29T14:32:08;2.85;;;2.13;;
27265;SDS011;14766;51.380;13.762;2023-05-29T14:34:35;3.60;;;2.33;;
27265;SDS011;14766;51.380;13.762;2023-05-29T14:37:02;3.40;;;2.67;;
27265;SDS011;14766;51.380;13.762;2023-05-29T14:39:29;3.38;;;2.45;;
27265;SDS011;14766;51.380;13.762;2023-05-29T14:41:56;4.70;;;2.50;;
27265;SDS011;14766;51.380;13.762;2023-05-29T14:44:25;5.95;;;2.67;;
27265;SDS011;14766;51.380;13.762;2023-05-29T14:46:53;4.13;;;2.70;;
27265;SDS011;14766;51.380;13.762;2023-05-29T14:49:21;5.22;;;2.65;;
27265;SDS011;14766;51.380;13.762;2023-05-29T14:51:49;4.28;;;2.58;;
27265;SDS011;14766;51.380;13.762;2023-05-29T14:54:17;3.55;;;2.78;;
27265;SDS011;14766;51.380;13.762;2023-05-29T14:56:45;3.47;;;2.50;;
27265;SDS011;14766;51.380;13.762;2023-05-29T14:59:13;4.22;;;2.28;;
27265;SDS011;14766;51.380;13.762;2023-05-29T15:01:40;3.88;;;2.80;;
27265;SDS011;14766;51.380;13.762;2023-05-29T15:04:07;4.90;;;2.67;;
27265;SDS011;14766;51.380;13.762;2023-05-29T15:06:36;4.53;;;2.92;;
27265;SDS011;14766;51.380;13.762;2023-05-29T15:09:04;4.63;;;2.80;;